Flight Track Log - Related Links

Times and Time Zones

All times are in EDT time to prevent confusion due to time zone crossing. See the N983CA flight status page for this flight to view local times or setup timezone preferences in your user account.

Time Position Orientation Groundspeed Altitude Reporting Facility
EDT Latitude Longitude Course Direction KTS MPH feet Rate Location/Type
Sun 05:10:59 PM 37.6411 -122.3553 North 171 197 33,000  Level Oakland Center
Sun 05:12:00 PM 37.6775 -122.3075 46° Northeast 226 260 3,100 -13,268 Descending Oakland Center
Sun 05:13:02 PM 37.7386 -122.2644 29° Northeast 257 296 5,800 2,780 Climbing Oakland Center
Sun 05:14:00 PM 37.6527 -122.3627 North  Level FlightAware Approximate
Sun 05:14:03 PM 37.8272 -122.2619 North 267 307 8,800  Level Oakland Center
Sun 05:15:00 PM 37.7708 -122.3500 North  Level FlightAware Approximate
Sun 05:15:05 PM 37.9042 -122.2606 North 275 316 10,800  Level Oakland Center
Sun 05:16:00 PM 37.8893 -122.3500 North  Level FlightAware Approximate
Sun 05:16:06 PM 37.9892 -122.2600 360° North 299 344 12,100  Level Oakland Center
Sun 05:17:08 PM 38.0819 -122.2583 North 329 379 13,400 1,171 Climbing Oakland Center
Sun 05:18:09 PM 38.1786 -122.2564 North 347 399 14,500 1,073 Climbing Oakland Center
Sun 05:19:11 PM 38.2806 -122.2414 North 370 426 15,600 1,210 Climbing Oakland Center
Sun 05:20:13 PM 38.4042 -122.2133 10° North 380 437 17,000 1,220 Climbing Oakland Center
Sun 05:21:14 PM 38.5106 -122.1903 10° North 388 447 18,100 1,073 Climbing Oakland Center
Sun 05:22:16 PM 38.6150 -122.1633 11° North 386 444 19,200 1,122 Climbing Oakland Center
Sun 05:23:17 PM 38.7294 -122.1411 North 397 457 20,400 1,171 Climbing Oakland Center
Sun 05:24:19 PM 38.8369 -122.1150 11° North 393 452 21,600 1,122 Climbing Oakland Center
Sun 05:25:20 PM 38.9456 -122.0911 10° North 394 453 22,700 1,073 Climbing Oakland Center
Sun 05:26:22 PM 39.0544 -122.0658 10° North 395 455 23,800 1,122 Climbing Oakland Center
Sun 05:27:23 PM 39.1603 -122.0250 17° North 398 458 25,000 1,122 Climbing Oakland Center
Sun 05:28:25 PM 39.2653 -121.9769 20° North 399 459 26,100 1,016 Climbing Oakland Center
Sun 05:29:27 PM 39.3703 -121.9289 19° North 399 459 27,100 1,073 Climbing Oakland Center
Sun 05:30:28 PM 39.4886 -121.8733 20° North 397 457 28,300 1,073 Climbing Oakland Center
Sun 05:31:30 PM 39.5903 -121.8253 20° North 392 451 29,300 976 Climbing Oakland Center
Sun 05:32:31 PM 39.6919 -121.7789 19° North 390 449 30,300 976 Climbing Oakland Center
Sun 05:33:33 PM 39.7903 -121.7325 20° North 382 440 31,300 774 Climbing Oakland Center
Sun 05:34:35 PM 39.9092 -121.6775 20° North 381 438 31,900 341 Climbing Oakland Center
Sun 05:35:36 PM 40.0100 -121.6292 20° North 385 443 32,000 49 Climbing Oakland Center
Sun 05:36:38 PM 40.1164 -121.5789 20° North 403 464 32,000  Level Oakland Center
Sun 05:37:39 PM 40.2264 -121.5269 20° North 419 482 32,000  Level Oakland Center
Sun 05:38:41 PM 40.3369 -121.4739 20° North 424 488 32,000  Level Oakland Center
Sun 05:39:42 PM 40.4486 -121.4219 19° North 427 491 32,000  Level Oakland Center
Sun 05:40:44 PM 40.5594 -121.3675 20° North 429 494 32,000  Level Oakland Center
Sun 05:41:46 PM 40.6722 -121.3222 17° North 424 488 32,000  Level Oakland Center
Sun 05:42:47 PM 40.8058 -121.2569 20° North 425 489 32,000  Level Oakland Center
Sun 05:43:49 PM 40.9194 -121.1964 22° Northeast 433 498 32,000  Level Oakland Center
Sun 05:44:50 PM 41.0325 -121.1442 19° North 431 496 32,000 244 Level Oakland Center
Sun 05:45:52 PM 41.1456 -121.0878 21° North 433 498 32,500 726 Climbing Oakland Center
Sun 05:46:54 PM 41.2525 -121.0344 21° North 423 487 33,500 677 Climbing Oakland Center
Sun 05:48:05 PM 41.3756 -120.9747 20° North 404 465 34,000 227 Climbing Seattle Center
Sun 05:49:06 PM 41.4778 -120.9250 20° North 395 455 34,000  Level Seattle Center
Sun 05:50:07 PM 41.5825 -120.8739 20° North 399 459 34,000  Level Seattle Center
Sun 05:51:08 PM 41.6900 -120.8208 20° North 408 470 34,000  Level Seattle Center
Sun 05:52:09 PM 41.8183 -120.7556 21° North 412 474 34,000  Level Seattle Center
Sun 05:53:10 PM 41.9267 -120.7011 20° North 416 479 34,000  Level Seattle Center
Sun 05:54:11 PM 42.0358 -120.6461 21° North 421 484 34,000  Level Seattle Center
Sun 05:55:12 PM 42.1447 -120.5900 21° North 420 483 34,000  Level Seattle Center
Sun 05:56:12 PM 42.2542 -120.5358 20° North 421 484 34,000  Level Seattle Center
Sun 05:57:13 PM 42.3622 -120.4803 21° North 417 480 34,000  Level Seattle Center
Sun 05:58:14 PM 42.4728 -120.4236 21° North 423 487 34,000  Level Seattle Center
Sun 05:59:15 PM 42.5819 -120.3669 21° North 422 486 34,000  Level Seattle Center
Sun 06:00:16 PM 42.6919 -120.3106 21° North 423 487 34,000  Level Seattle Center
Sun 06:01:17 PM 42.8006 -120.2553 20° North 419 482 34,000  Level Seattle Center
Sun 06:02:18 PM 42.9108 -120.1989 21° North 423 487 34,000  Level Seattle Center
Sun 06:03:18 PM 43.0189 -120.1419 21° North 419 482 34,000  Level Seattle Center
Sun 06:04:19 PM 43.1281 -120.0847 21° North 420 483 34,000  Level Seattle Center
Sun 06:05:20 PM 43.2367 -120.0283 21° North 419 482 34,000  Level Seattle Center
Sun 06:06:21 PM 43.3531 -119.9678 21° North 415 478 34,000  Level Seattle Center
Sun 06:07:22 PM 43.4594 -119.9100 22° Northeast 413 475 34,000  Level Seattle Center
Sun 06:08:23 PM 43.5669 -119.8556 20° North 413 475 34,000  Level Seattle Center
Sun 06:09:24 PM 43.6742 -119.7983 21° North 415 478 34,000  Level Seattle Center
Sun 06:10:25 PM 43.8022 -119.7278 22° Northeast 415 478 34,000  Level Seattle Center
Sun 06:11:25 PM 43.9081 -119.6733 20° North 409 471 34,000  Level Seattle Center
Sun 06:12:26 PM 44.0133 -119.6153 22° Northeast 409 471 34,000  Level Seattle Center
Sun 06:13:27 PM 44.1186 -119.5592 21° North 407 468 34,000  Level Seattle Center
Sun 06:14:28 PM 44.2225 -119.5039 21° North 403 464 34,000  Level Seattle Center
Sun 06:15:29 PM 44.3256 -119.4467 22° Northeast 402 463 34,000  Level Seattle Center
Sun 06:16:30 PM 44.4278 -119.3908 21° North 397 457 34,000  Level Seattle Center
Sun 06:17:31 PM 44.5311 -119.3339 21° North 401 461 34,000  Level Seattle Center
Sun 06:18:32 PM 44.6333 -119.2786 21° North 398 458 34,000  Level Seattle Center
Sun 06:19:33 PM 44.7367 -119.2228 21° North 401 461 34,000  Level Seattle Center
Sun 06:20:33 PM 44.8400 -119.1653 22° Northeast 402 463 34,000  Level Seattle Center
Sun 06:21:34 PM 44.9667 -119.0961 21° North 408 470 34,000  Level Seattle Center
Sun 06:22:35 PM 45.0708 -119.0372 22° Northeast 407 468 34,000  Level Seattle Center
Sun 06:23:36 PM 45.1747 -118.9803 21° North 404 465 34,000  Level Seattle Center
Sun 06:24:37 PM 45.2789 -118.9217 22° Northeast 404 465 34,000  Level Seattle Center
Sun 06:25:38 PM 45.3817 -118.8617 22° Northeast 401 461 34,000  Level Seattle Center
Sun 06:26:39 PM 45.4861 -118.8031 21° North 403 464 34,000  Level Seattle Center
Sun 06:27:40 PM 45.5911 -118.7456 21° North 405 466 34,000  Level Seattle Center
Sun 06:28:41 PM 45.6942 -118.6858 22° Northeast 403 464 34,000 -148 Level Seattle Center
Sun 06:29:42 PM 45.7961 -118.6239 23° Northeast 401 461 33,700 -1,240 Descending Seattle Center
Sun 06:30:42 PM 45.9094 -118.5600 21° North 438 504 31,500 -2,083 Descending Seattle Center
Sun 06:31:43 PM 46.0486 -118.4786 22° Northeast 457 526 29,500 -1,623 Descending Seattle Center
Sun 06:32:44 PM 46.1642 -118.4111 22° Northeast 452 520 28,200 -1,279 Descending Seattle Center
Sun 06:33:45 PM 46.2756 -118.3444 22° Northeast 439 505 26,900 -1,574 Descending Seattle Center
Sun 06:34:46 PM 46.3869 -118.2789 22° Northeast 437 503 25,000 -1,918 Descending Seattle Center
Sun 06:35:47 PM 46.5000 -118.2125 22° Northeast 441 507 23,000 -1,967 Descending Seattle Center
Sun 06:36:48 PM 46.6133 -118.1461 22° Northeast 442 509 21,000 -1,967 Descending Seattle Center
Sun 06:37:49 PM 46.7136 -118.0861 22° Northeast 398 458 19,000 -1,967 Descending Seattle Center
Sun 06:38:50 PM 46.8047 -118.0331 22° Northeast 362 417 17,000 -2,016 Descending Seattle Center
Sun 06:39:51 PM 46.8867 -117.9819 23° Northeast 325 374 14,900 -2,164 Descending Seattle Center
Sun 06:40:52 PM 46.9706 -117.9381 20° North 322 371 12,600 -2,066 Descending Seattle Center
Sun 06:41:53 PM 47.0511 -117.8958 20° North 309 356 10,700 -1,721 Descending Seattle Center
Sun 06:42:54 PM 47.1264 -117.8553 20° North 291 335 9,100 -1,388 Descending Seattle Center
Sun 06:43:54 PM 47.1961 -117.8200 19° North 267 307 7,900 -1,438 Descending Seattle Center
Sun 06:44:55 PM 47.2681 -117.7819 20° North 274 315 6,200 -1,574 Descending Seattle Center
Sun 06:45:56 PM 47.3497 -117.7389 20° North 259 298 4,700 -1,082 Descending Seattle Center
Sun 06:46:57 PM 47.4147 -117.7050 19° North 248 285 4,000 -344 Descending Seattle Center
Sun 06:47:58 PM 47.4806 -117.6697 20° North 250 288 4,000  Level Seattle Center
Sun 06:48:59 PM 47.5375 -117.6400 19° North 208 239 4,000 -197 Level Seattle Center
Sun 06:50:00 PM 47.5722 -117.6069 33° Northeast 141 162 3,600 -393 Descending Seattle Center

Login

Don't have an account? Register now (free) for customized features, flight alerts, and more!